To NAV CANADA Home Page Login to a new session Search on AWWS site Feedback and Comments Disclaimer Vers la page française équivalente Tips FAQ What's new on the site To the Forecasts and Observations / NOTAM section To "File a Flight Plan" website Publications and other links Update of the User's profile FIC Telephone Numbers My Weather Data Folder Route Weather Data Regional Weather Data Local Weather Data To the Forecasts and Observations / NOTAM section
Request Generated 08/24/2016 at 10:12:31 UTC . Weather information available at that time is displayed.

METAR/TAF

TALOYOAK/NU    

METAR CYYH 241000Z 00000KT 8SM BCFG FEW009 FEW080 SCT210 BKN220 03/02
A2991 RMK ST1AC1CI2CI2 ST TR VIS NW 1/2 SLP134=
SPECI CYYH 240940Z 35004KT 6SM BCFG FEW009 FEW080 SCT210 BKN220 03/02
A2991 RMK FG1ST1AC1CI2CI2 ST TR VIS W-NW 1/2 SLP134=
METAR CYYH 240900Z 34003KT 15SM VCFG FEW080 SCT210 BKN220 03/03 A2991
RMK AC1CI2CC2 SLP133=
METAR CYYH 240800Z 27002KT 15SM FEW080 SCT210 BKN220 04/04 A2992 RMK
AC1CI3CC2 AC TR SLP134=

TAF CYYH 240538Z 2406/2418 VRB03KT P6SM FEW210
FM241100 35005KT P6SM BKN080
RMK NXT FCST BY 241200Z=
Your time UTC time
Weather data provided by Environment Canada and NAV CANADA